createdAt,value
2018-08-19T00:02:14.846Z,8.47
2018-08-19T00:04:44.458Z,8.03
2018-08-19T00:07:13.167Z,7.95
2018-08-19T00:09:41.964Z,8.63
2018-08-19T00:12:10.685Z,9.17
2018-08-19T00:14:39.380Z,9.48
2018-08-19T00:17:08.096Z,8.17
2018-08-19T00:19:36.761Z,8.53
2018-08-19T00:22:05.513Z,8.13
2018-08-19T00:24:34.382Z,8.98
2018-08-19T00:27:03.123Z,8.30
2018-08-19T00:29:36.718Z,9.40
2018-08-19T00:32:05.714Z,9.03
2018-08-19T00:34:35.081Z,8.23
2018-08-19T00:37:05.717Z,10.60
2018-08-19T00:39:34.704Z,8.33
2018-08-19T00:42:04.354Z,9.00
2018-08-19T00:44:33.760Z,7.57
2018-08-19T00:47:02.442Z,13.10
2018-08-19T00:49:31.143Z,11.33
2018-08-19T00:52:00.909Z,10.43
2018-08-19T00:54:30.859Z,7.70
2018-08-19T00:57:00.654Z,8.13
2018-08-19T00:59:30.576Z,9.28
2018-08-19T01:01:59.406Z,8.00
2018-08-19T01:04:28.591Z,7.17
2018-08-19T01:06:59.153Z,7.70
2018-08-19T01:09:30.852Z,9.93
2018-08-19T01:11:59.626Z,8.40
2018-08-19T01:14:28.280Z,8.80
2018-08-19T01:16:56.945Z,9.20
2018-08-19T01:19:25.852Z,7.60
2018-08-19T01:21:54.862Z,7.93
2018-08-19T01:24:23.668Z,7.03
2018-08-19T01:26:52.396Z,8.27
2018-08-19T01:29:37.247Z,9.83
2018-08-19T01:32:12.184Z,8.73
2018-08-19T01:34:44.483Z,9.93
2018-08-19T01:37:13.895Z,7.90
2018-08-19T01:39:42.543Z,8.73
2018-08-19T01:42:11.269Z,8.03
2018-08-19T01:44:41.872Z,8.20
2018-08-19T01:47:10.546Z,9.20
2018-08-19T01:49:39.182Z,9.13
2018-08-19T01:52:08.570Z,10.17
2018-08-19T01:54:37.227Z,9.80
2018-08-19T01:57:05.912Z,9.00
2018-08-19T01:59:35.526Z,10.07
2018-08-19T02:02:05.520Z,9.80
2018-08-19T02:04:43.184Z,11.43
2018-08-19T02:07:12.017Z,11.50
2018-08-19T02:09:55.954Z,10.10
2018-08-19T02:12:25.698Z,10.27
2018-08-19T02:14:54.340Z,10.57
2018-08-19T02:17:22.998Z,11.60
2018-08-19T02:19:51.732Z,10.90
2018-08-19T02:22:20.358Z,10.90
2018-08-19T02:24:52.961Z,12.07
2018-08-19T02:27:21.808Z,12.33
2018-08-19T02:29:50.516Z,11.43
2018-08-19T02:32:19.246Z,12.97
2018-08-19T02:34:47.955Z,11.93
2018-08-19T02:37:17.561Z,11.40
2018-08-19T02:39:49.116Z,12.10
2018-08-19T02:42:27.006Z,10.80
2018-08-19T02:45:01.926Z,9.57
2018-08-19T02:47:31.048Z,11.57
2018-08-19T02:49:59.790Z,11.47
2018-08-19T02:52:33.902Z,12.43
2018-08-19T02:55:03.854Z,14.40
2018-08-19T02:57:33.253Z,13.53
2018-08-19T03:00:02.813Z,13.37
2018-08-19T03:02:34.671Z,13.00
2018-08-19T03:05:08.045Z,13.27
2018-08-19T03:07:36.702Z,12.30
2018-08-19T03:10:09.605Z,12.90
2018-08-19T03:12:38.602Z,13.40
2018-08-19T03:15:08.501Z,14.63
2018-08-19T03:17:37.252Z,14.77
2018-08-19T03:20:07.856Z,14.80
2018-08-19T03:22:36.526Z,16.70
2018-08-19T03:25:05.747Z,15.33
2018-08-19T03:27:34.417Z,17.03
2018-08-19T03:30:04.615Z,16.13
2018-08-19T03:32:33.285Z,14.30
2018-08-19T03:35:07.669Z,15.43
2018-08-19T03:37:37.328Z,18.60
2018-08-19T03:40:06.747Z,17.27
2018-08-19T03:42:35.368Z,16.27
2018-08-19T03:45:09.297Z,16.17
2018-08-19T03:47:37.964Z,15.63
2018-08-19T03:50:12.000Z,15.67
2018-08-19T03:52:42.338Z,15.70
2018-08-19T03:55:16.260Z,14.90
2018-08-19T03:57:44.926Z,14.67
2018-08-19T04:00:14.476Z,15.30
2018-08-19T04:03:45.716Z,16.60
2018-08-19T04:06:14.385Z,15.47
2018-08-19T04:08:45.958Z,15.40
2018-08-19T04:11:14.639Z,15.10
2018-08-19T04:13:43.280Z,16.60
2018-08-19T04:16:12.585Z,15.67
2018-08-19T04:18:45.349Z,15.40
2018-08-19T04:21:15.376Z,15.40
2018-08-19T04:23:46.186Z,16.20
2018-08-19T04:26:14.907Z,15.30
2018-08-19T04:28:44.706Z,14.87
2018-08-19T04:31:18.636Z,15.60
2018-08-19T04:33:48.385Z,15.00
2018-08-19T04:36:18.271Z,16.00
2018-08-19T04:38:47.024Z,15.63
2018-08-19T04:41:16.228Z,15.07
2018-08-19T04:43:45.580Z,14.00
2018-08-19T04:46:14.286Z,14.23
2018-08-19T04:48:44.759Z,13.80
2018-08-19T04:51:20.065Z,14.33
2018-08-19T04:53:48.795Z,16.83
2018-08-19T04:56:17.619Z,13.27
2018-08-19T04:58:46.327Z,14.43
2018-08-19T05:01:15.023Z,13.00
2018-08-19T05:03:45.059Z,12.63
2018-08-19T05:06:16.689Z,12.43
2018-08-19T05:08:45.347Z,11.30
2018-08-19T05:11:14.088Z,12.10
2018-08-19T05:13:42.718Z,12.68
2018-08-19T05:16:11.374Z,10.50
2018-08-19T05:18:40.268Z,11.87
2018-08-19T05:21:15.133Z,11.77
2018-08-19T05:23:43.798Z,14.30
2018-08-19T05:26:12.653Z,12.43
2018-08-19T05:28:41.801Z,10.90
2018-08-19T05:31:10.580Z,11.50
2018-08-19T05:33:41.854Z,13.43
2018-08-19T05:36:10.259Z,11.20
2018-08-19T05:38:38.959Z,12.60
2018-08-19T05:41:09.945Z,12.53
2018-08-19T05:43:38.669Z,11.40
2018-08-19T05:46:07.360Z,12.23
2018-08-19T05:48:36.094Z,14.67
2018-08-19T05:51:04.783Z,13.80
2018-08-19T05:53:34.323Z,12.53
2018-08-19T05:56:03.028Z,14.27
2018-08-19T05:58:31.713Z,15.90
2018-08-19T06:01:01.303Z,16.00
2018-08-19T06:03:30.266Z,17.23
2018-08-19T06:05:59.353Z,17.87
2018-08-19T06:08:28.046Z,16.40
2018-08-19T06:10:56.779Z,25.87
2018-08-19T06:13:27.468Z,16.63
2018-08-19T06:15:56.279Z,17.67
2018-08-19T06:18:24.892Z,18.60
2018-08-19T06:20:53.527Z,20.73
2018-08-19T06:23:22.311Z,20.30
2018-08-19T06:25:50.985Z,21.93
2018-08-19T06:28:19.695Z,22.93
2018-08-19T06:30:48.386Z,25.13
2018-08-19T06:33:17.046Z,25.47
2018-08-19T06:35:45.692Z,26.13
2018-08-19T06:38:14.363Z,25.67
2018-08-19T06:40:43.173Z,25.63
2018-08-19T06:43:11.875Z,25.17
2018-08-19T06:45:40.562Z,23.77
2018-08-19T06:48:09.338Z,24.20
2018-08-19T06:50:38.065Z,25.77
2018-08-19T06:53:06.852Z,23.70
2018-08-19T06:55:35.670Z,23.57
2018-08-19T06:58:04.465Z,22.20
2018-08-19T07:00:34.725Z,21.23
2018-08-19T07:03:04.867Z,20.23
2018-08-19T07:05:35.118Z,21.37
2018-08-19T07:08:03.855Z,21.70
2018-08-19T07:10:37.933Z,20.40
2018-08-19T07:13:10.161Z,19.48
2018-08-19T07:15:40.286Z,22.00
2018-08-19T07:18:10.570Z,21.62
2018-08-19T07:20:40.470Z,18.67
2018-08-19T07:23:09.736Z,22.10
2018-08-19T07:25:41.437Z,18.30
2018-08-19T07:28:11.379Z,18.48
2018-08-19T07:30:40.621Z,17.85
2018-08-19T07:33:09.616Z,18.35
2018-08-19T07:35:38.416Z,16.62
2018-08-19T07:38:07.109Z,16.15
2018-08-19T07:40:35.945Z,20.12
2018-08-19T07:43:04.763Z,19.50
2018-08-19T07:45:33.468Z,15.95
2018-08-19T07:48:02.193Z,15.30
2018-08-19T07:50:30.842Z,19.82
2018-08-19T07:52:59.530Z,13.90
2018-08-19T07:55:28.181Z,13.10
2018-08-19T07:57:56.907Z,15.43
2018-08-19T08:00:30.943Z,18.37
2018-08-19T08:02:59.650Z,12.82
2018-08-19T08:05:32.865Z,15.05
2018-08-19T08:08:01.607Z,12.05
2018-08-19T08:10:30.350Z,11.28
2018-08-19T08:13:04.189Z,13.18
2018-08-19T08:15:34.361Z,15.30
2018-08-19T08:18:03.090Z,14.07
2018-08-19T08:20:31.745Z,13.20
2018-08-19T08:23:04.132Z,11.30
2018-08-19T08:25:32.845Z,15.15
2018-08-19T08:28:01.563Z,14.13
2018-08-19T08:30:30.284Z,12.47
2018-08-19T08:32:59.043Z,14.33
2018-08-19T08:35:27.721Z,12.20
2018-08-19T08:37:56.407Z,10.55
2018-08-19T08:40:25.125Z,10.82
2018-08-19T08:42:53.816Z,12.93
2018-08-19T08:45:26.537Z,11.20
2018-08-19T08:47:55.249Z,12.60
2018-08-19T08:50:24.161Z,14.07
2018-08-19T08:52:52.857Z,12.95
2018-08-19T08:55:21.509Z,10.75
2018-08-19T08:57:50.923Z,12.00
2018-08-19T09:00:19.664Z,15.68
2018-08-19T09:02:48.417Z,12.43
2018-08-19T09:05:17.096Z,10.32
2018-08-19T09:07:45.840Z,12.40
2018-08-19T09:10:14.900Z,14.38
2018-08-19T09:12:45.116Z,12.73
2018-08-19T09:15:14.324Z,17.40
2018-08-19T09:17:43.077Z,13.13
2018-08-19T09:20:12.360Z,15.00
2018-08-19T09:22:41.341Z,15.55
2018-08-19T09:25:10.716Z,14.18
2018-08-19T09:27:40.050Z,11.35
2018-08-19T09:30:10.173Z,12.43
2018-08-19T09:32:54.922Z,14.73
2018-08-19T09:35:23.659Z,13.22
2018-08-19T09:37:57.647Z,11.50
2018-08-19T09:40:27.187Z,11.73
2018-08-19T09:42:56.730Z,9.25
2018-08-19T09:45:25.493Z,11.50
2018-08-19T09:47:54.468Z,11.57
2018-08-19T09:50:23.019Z,10.88
2018-08-19T09:52:51.734Z,13.28
2018-08-19T09:55:27.276Z,12.13
2018-08-19T09:57:56.803Z,10.48
2018-08-19T10:00:26.594Z,13.83
2018-08-19T10:02:55.277Z,12.55
2018-08-19T10:05:25.480Z,10.65
2018-08-19T10:07:55.636Z,10.30
2018-08-19T10:10:24.951Z,10.90
2018-08-19T10:12:53.646Z,9.95
2018-08-19T10:15:22.323Z,8.63
2018-08-19T10:17:51.065Z,9.75
2018-08-19T10:20:19.775Z,9.73
2018-08-19T10:22:48.538Z,7.92
2018-08-19T10:25:18.425Z,6.70
2018-08-19T10:27:50.303Z,10.03
2018-08-19T10:30:19.893Z,8.55
2018-08-19T10:33:12.193Z,10.38
2018-08-19T10:35:40.881Z,10.18
2018-08-19T10:38:09.566Z,6.85
2018-08-19T10:40:38.487Z,9.03
2018-08-19T10:43:10.524Z,8.23
2018-08-19T10:45:42.877Z,7.42
2018-08-19T10:48:13.941Z,7.33
2018-08-19T10:50:42.806Z,6.25
2018-08-19T10:53:17.122Z,8.35
2018-08-19T10:55:46.888Z,8.60
2018-08-19T10:58:15.773Z,7.53
2018-08-19T11:00:44.508Z,8.03
2018-08-19T11:03:20.296Z,7.67
2018-08-19T11:05:50.843Z,6.22
2018-08-19T11:08:19.526Z,6.67
2018-08-19T11:10:48.312Z,6.58
2018-08-19T11:13:20.159Z,7.83
2018-08-19T11:15:50.206Z,6.65
2018-08-19T11:18:29.092Z,7.67
2018-08-19T11:21:00.961Z,7.17
2018-08-19T11:23:29.724Z,9.23
2018-08-19T11:25:58.955Z,8.63
2018-08-19T11:28:53.631Z,6.55
2018-08-19T11:31:27.873Z,6.60
2018-08-19T11:33:58.407Z,7.42
2018-08-19T11:36:33.255Z,6.37
2018-08-19T11:39:02.051Z,6.37
2018-08-19T11:41:32.086Z,9.75
2018-08-19T11:44:06.531Z,7.75
2018-08-19T11:46:35.342Z,6.78
2018-08-19T11:49:13.235Z,7.00
2018-08-19T11:51:54.697Z,8.78
2018-08-19T11:54:24.255Z,14.35
2018-08-19T11:57:02.035Z,7.20
2018-08-19T11:59:35.992Z,6.90
2018-08-19T12:02:06.097Z,9.23
2018-08-19T12:04:34.743Z,7.85
2018-08-19T12:07:03.462Z,8.15
2018-08-19T12:09:32.409Z,8.48
2018-08-19T12:12:04.047Z,7.00
2018-08-19T12:14:36.899Z,7.35
2018-08-19T12:17:09.437Z,8.40
2018-08-19T12:19:39.859Z,7.42
2018-08-19T12:22:11.296Z,9.70
2018-08-19T12:24:44.689Z,8.20
2018-08-19T12:27:14.990Z,7.83
2018-08-19T12:29:44.373Z,10.50
2018-08-19T12:32:28.399Z,7.40
2018-08-19T12:35:01.182Z,11.03
2018-08-19T12:37:31.270Z,7.47
2018-08-19T12:40:00.374Z,10.32
2018-08-19T12:42:29.664Z,9.03
2018-08-19T12:45:02.168Z,8.08
2018-08-19T12:47:30.953Z,7.87
2018-08-19T12:50:01.984Z,9.18
2018-08-19T12:52:32.994Z,7.25
2018-08-19T12:55:11.665Z,7.92
2018-08-19T12:57:41.221Z,7.78
2018-08-19T13:00:20.939Z,8.35
2018-08-19T13:02:51.103Z,6.92
2018-08-19T13:05:20.412Z,7.08
2018-08-19T13:07:49.236Z,8.48
2018-08-19T13:10:18.299Z,6.47
2018-08-19T13:12:52.027Z,7.53
2018-08-19T13:15:21.065Z,7.50
2018-08-19T13:17:49.852Z,7.28
2018-08-19T13:20:18.529Z,7.33
2018-08-19T13:22:52.774Z,10.90
2018-08-19T13:25:22.724Z,8.63
2018-08-19T13:27:51.479Z,7.47
2018-08-19T13:30:20.912Z,7.12
2018-08-19T13:32:50.331Z,7.22
2018-08-19T13:35:19.400Z,7.87
2018-08-19T13:37:48.052Z,7.47
2018-08-19T13:40:16.748Z,8.08
2018-08-19T13:42:45.468Z,8.00
2018-08-19T13:45:15.236Z,8.90
2018-08-19T13:47:46.309Z,8.25
2018-08-19T13:50:15.205Z,9.38
2018-08-19T13:52:44.346Z,8.13
2018-08-19T13:55:14.956Z,8.95
2018-08-19T13:57:43.659Z,8.48
2018-08-19T14:00:14.983Z,10.98
2018-08-19T14:02:44.074Z,8.68
2018-08-19T14:05:12.847Z,8.60
2018-08-19T14:07:41.713Z,9.23
2018-08-19T14:10:11.663Z,9.20
2018-08-19T14:12:40.340Z,11.60
2018-08-19T14:15:09.077Z,8.28
2018-08-19T14:17:37.769Z,10.05
2018-08-19T14:20:07.775Z,9.70
2018-08-19T14:22:36.514Z,9.75
2018-08-19T14:25:06.366Z,8.85
2018-08-19T14:27:35.041Z,8.90
2018-08-19T14:30:03.833Z,8.73
2018-08-19T14:32:38.068Z,9.48
2018-08-19T14:35:07.158Z,9.38
2018-08-19T14:37:35.826Z,9.50
2018-08-19T14:40:05.812Z,8.68
2018-08-19T14:42:34.501Z,8.25
2018-08-19T14:45:03.284Z,8.80
2018-08-19T14:47:32.009Z,9.18
2018-08-19T14:50:00.727Z,8.65
2018-08-19T14:52:29.657Z,8.23
2018-08-19T14:54:58.400Z,9.15
2018-08-19T14:57:27.124Z,8.28
2018-08-19T14:59:55.728Z,9.60
2018-08-19T15:02:24.442Z,7.95
2018-08-19T15:04:53.059Z,9.45
2018-08-19T15:07:21.681Z,9.00
2018-08-19T15:09:52.171Z,10.50
2018-08-19T15:12:22.027Z,9.78
2018-08-19T15:14:51.118Z,8.33
2018-08-19T15:17:19.802Z,12.43
2018-08-19T15:19:50.730Z,9.40
2018-08-19T15:22:20.050Z,8.88
2018-08-19T15:24:49.094Z,8.90
2018-08-19T15:27:17.755Z,8.80
2018-08-19T15:29:49.649Z,9.05
2018-08-19T15:32:19.069Z,9.78
2018-08-19T15:34:47.657Z,18.37
2018-08-19T15:37:16.309Z,9.38
2018-08-19T15:39:44.990Z,10.43
2018-08-19T15:42:15.366Z,11.18
2018-08-19T15:44:44.039Z,10.95
2018-08-19T15:47:12.772Z,9.00
2018-08-19T15:49:41.465Z,8.05
2018-08-19T15:52:10.211Z,9.50
2018-08-19T15:54:42.475Z,8.35
2018-08-19T15:57:11.523Z,9.15
2018-08-19T15:59:40.224Z,7.95
2018-08-19T16:02:08.908Z,8.23
2018-08-19T16:04:37.547Z,9.35
2018-08-19T16:07:06.342Z,7.72
2018-08-19T16:09:35.031Z,7.83
2018-08-19T16:12:03.799Z,10.43
2018-08-19T16:14:33.101Z,8.03
2018-08-19T16:17:02.976Z,7.87
2018-08-19T16:19:31.845Z,9.08
2018-08-19T16:22:00.964Z,8.70
2018-08-19T16:24:29.730Z,9.65
2018-08-19T16:26:58.465Z,8.88
2018-08-19T16:29:27.197Z,8.08
2018-08-19T16:31:55.893Z,9.80
2018-08-19T16:34:24.533Z,9.33
2018-08-19T16:36:53.168Z,9.15
2018-08-19T16:39:22.028Z,8.08
2018-08-19T16:41:50.713Z,8.90
2018-08-19T16:44:19.404Z,7.92
2018-08-19T16:46:48.093Z,9.03
2018-08-19T16:49:16.784Z,11.75
2018-08-19T16:51:45.517Z,9.30
2018-08-19T16:54:14.185Z,9.93
2018-08-19T16:56:42.882Z,9.35
2018-08-19T16:59:11.572Z,8.73
2018-08-19T17:01:40.230Z,9.85
2018-08-19T17:04:09.249Z,10.00
2018-08-19T17:06:38.544Z,8.45
2018-08-19T17:09:10.524Z,9.15
2018-08-19T17:11:39.194Z,10.08
2018-08-19T17:14:10.049Z,8.13
2018-08-19T17:16:38.680Z,10.25
2018-08-19T17:19:07.322Z,8.43
2018-08-19T17:21:36.018Z,8.63
2018-08-19T17:24:04.756Z,10.08
2018-08-19T17:26:33.571Z,8.93
2018-08-19T17:29:07.556Z,10.90
2018-08-19T17:31:36.388Z,8.35
2018-08-19T17:34:12.434Z,9.15
2018-08-19T17:36:41.200Z,11.70
2018-08-19T17:39:14.301Z,8.95
2018-08-19T17:41:42.967Z,10.60
2018-08-19T17:44:11.656Z,11.22
2018-08-19T17:46:40.290Z,11.55
2018-08-19T17:49:14.240Z,11.55
2018-08-19T17:51:42.911Z,8.95
2018-08-19T17:54:16.795Z,10.18
2018-08-19T17:56:45.462Z,8.83
2018-08-19T17:59:14.153Z,10.60
2018-08-19T18:01:44.023Z,12.73
2018-08-19T18:04:12.697Z,9.30
2018-08-19T18:06:41.381Z,10.35
2018-08-19T18:11:40.689Z,9.80
2018-08-19T18:14:09.481Z,9.55
2018-08-19T18:16:38.160Z,7.60
2018-08-19T18:19:06.839Z,8.83
2018-08-19T18:21:38.521Z,8.38
2018-08-19T18:24:07.362Z,11.65
2018-08-19T18:26:36.132Z,9.18
2018-08-19T18:29:04.873Z,9.63
2018-08-19T18:31:33.567Z,9.35
2018-08-19T18:34:03.283Z,10.13
2018-08-19T18:36:35.413Z,8.08
2018-08-19T18:39:06.218Z,7.55
2018-08-19T18:41:36.534Z,8.48
2018-08-19T18:44:07.565Z,9.63
2018-08-19T18:46:36.668Z,9.98
2018-08-19T18:49:09.880Z,9.48
2018-08-19T18:51:38.857Z,11.73
2018-08-19T18:54:10.600Z,10.03
2018-08-19T18:56:39.236Z,10.35
2018-08-19T18:59:08.090Z,11.00
2018-08-19T19:01:36.766Z,10.05
2018-08-19T19:04:05.492Z,9.60
2018-08-19T19:06:34.163Z,8.38
2018-08-19T19:09:02.977Z,10.78
2018-08-19T19:11:31.625Z,8.73
2018-08-19T19:14:03.013Z,12.18
2018-08-19T19:16:35.951Z,11.40
2018-08-19T19:19:04.625Z,11.25
2018-08-19T19:21:33.278Z,10.55
2018-08-19T19:24:01.984Z,8.68
2018-08-19T19:26:35.961Z,10.65
2018-08-19T19:29:09.089Z,10.98
2018-08-19T19:31:37.785Z,10.03
2018-08-19T19:34:11.763Z,9.33
2018-08-19T19:36:40.647Z,8.23
2018-08-19T19:39:09.356Z,8.10
2018-08-19T19:41:38.053Z,10.25
2018-08-19T19:44:23.655Z,10.30
2018-08-19T19:46:53.487Z,8.35
2018-08-19T19:49:22.608Z,9.15
2018-08-19T19:52:05.591Z,10.00
2018-08-19T19:54:34.668Z,8.15
2018-08-19T19:57:03.342Z,8.05
2018-08-19T19:59:33.432Z,8.85
2018-08-19T20:02:02.292Z,8.63
2018-08-19T20:04:34.505Z,8.48
2018-08-19T20:07:03.288Z,10.20
2018-08-19T20:09:35.145Z,10.35
2018-08-19T20:12:03.911Z,8.65
2018-08-19T20:14:36.792Z,9.00
2018-08-19T20:17:05.493Z,8.33
2018-08-19T20:19:34.186Z,11.90
2018-08-19T20:22:03.009Z,10.70
2018-08-19T20:24:31.673Z,9.30
2018-08-19T20:27:00.325Z,11.20
2018-08-19T20:29:28.961Z,10.93
2018-08-19T20:31:57.734Z,8.25
2018-08-19T20:34:26.406Z,10.65
2018-08-19T20:36:55.165Z,8.38
2018-08-19T20:39:23.851Z,9.80
2018-08-19T20:41:52.504Z,11.65
2018-08-19T20:44:21.154Z,9.48
2018-08-19T20:46:53.980Z,9.93
2018-08-19T20:49:22.666Z,12.03
2018-08-19T20:51:51.365Z,9.95
2018-08-19T20:54:20.048Z,9.20
2018-08-19T20:56:48.701Z,9.73
2018-08-19T20:59:22.719Z,12.05
2018-08-19T21:01:51.384Z,8.93
2018-08-19T21:04:20.041Z,8.70
2018-08-19T21:06:48.695Z,10.88
2018-08-19T21:09:17.389Z,10.20
2018-08-19T21:11:46.072Z,7.97
2018-08-19T21:14:14.715Z,7.97
2018-08-19T21:16:43.383Z,7.87
2018-08-19T21:19:12.066Z,8.03
2018-08-19T21:21:40.731Z,10.18
2018-08-19T21:24:09.393Z,12.47
2018-08-19T21:26:38.182Z,10.60
2018-08-19T21:32:48.666Z,9.08
2018-08-19T21:35:17.499Z,10.43
2018-08-19T21:37:47.381Z,10.38
2018-08-19T21:40:50.065Z,10.20
2018-08-19T21:43:18.751Z,9.63
2018-08-19T21:45:47.496Z,8.65
2018-08-19T21:48:16.988Z,10.63
2018-08-19T21:50:45.646Z,11.25
2018-08-19T21:53:15.680Z,8.15
2018-08-19T21:55:47.673Z,12.20
2018-08-19T21:58:16.327Z,11.78
2018-08-19T22:00:55.916Z,9.88
2018-08-19T22:03:29.943Z,9.93
2018-08-19T22:05:58.595Z,9.78
2018-08-19T22:08:27.265Z,9.58
2018-08-19T22:10:55.987Z,8.05
2018-08-19T22:13:24.551Z,7.85
2018-08-19T22:15:53.229Z,9.05
2018-08-19T22:18:23.119Z,7.72
2018-08-19T22:21:07.393Z,7.17
2018-08-19T22:23:41.317Z,7.40
2018-08-19T22:26:10.991Z,9.63
2018-08-19T22:28:39.846Z,8.23
2018-08-19T22:31:20.180Z,10.35
2018-08-19T22:33:53.610Z,8.53
2018-08-19T22:36:22.391Z,9.18
2018-08-19T22:38:51.859Z,7.65
2018-08-19T22:41:23.089Z,10.20
2018-08-19T22:43:52.454Z,8.65
2018-08-19T22:46:22.857Z,8.48
2018-08-19T22:48:52.290Z,11.53
2018-08-19T22:51:21.139Z,9.38
2018-08-19T22:53:51.685Z,9.40
2018-08-19T22:56:20.760Z,11.93
2018-08-19T22:58:49.470Z,12.43
2018-08-19T23:01:18.210Z,12.40
2018-08-19T23:03:46.908Z,7.50
2018-08-19T23:06:15.588Z,9.95
2018-08-19T23:08:44.198Z,8.75
2018-08-19T23:11:12.869Z,9.20
2018-08-19T23:13:52.635Z,10.58
2018-08-19T23:16:22.507Z,11.53
2018-08-19T23:18:51.196Z,13.00
2018-08-19T23:21:19.836Z,10.80
2018-08-19T23:23:48.488Z,9.58
2018-08-19T23:26:17.149Z,11.18
2018-08-19T23:28:45.956Z,12.20
2018-08-19T23:31:14.661Z,8.80
2018-08-19T23:33:43.421Z,11.50
2018-08-19T23:36:12.063Z,8.43
2018-08-19T23:38:40.737Z,10.28
2018-08-19T23:41:09.385Z,8.98
2018-08-19T23:43:38.025Z,10.15
2018-08-19T23:46:07.041Z,10.50
2018-08-19T23:48:35.674Z,11.48
2018-08-19T23:51:04.359Z,12.37
2018-08-19T23:53:33.020Z,12.30
2018-08-19T23:56:01.655Z,12.00
2018-08-19T23:58:30.300Z,11.55
